Mountain Home Air Force Base
KMUO : now visible

Airfield :











YOU CAN JOIN US ON...

 
LOGIN :

Register | Disclaimer

   EN    FR    IT 

 









Legend :    VFR   Marginal VFR   IFR   Intensive IFR   Very Intensive IFR
Visi :
Ceiling :
>= 8 km
>= 3000ft
5 to 8 km
1000 to 3000 ft
1500m to 5 km
500 to 1000 ft
800 to 1500m
200 to 500 ft
< 800m
< 200 ft
Symbols :   Thunderstorms  Fog  Heavy snow  Heavy precipitations  Wind > 20 kt






- Airport Elevation : 2996 ft


KMUO - Mountain Home Air Force Base

CURRENT METAR :
  • 120333Z AUTO 11010KT 10SM -RA FEW026 SCT035 SCT042 03/03 A3009 RMK AO2 RAB33 SLP207 $

EXPIRED METARs :
  • 120258Z AUTO 11012KT 10SM FEW070 03/03 A3008 RMK AO2 DZE01RAB01E35 SLP203 P0001 60001 T00300030 58009 $
  • 120235Z AUTO 11011KT 10SM FEW070 03/03 A3009 RMK AO2 DZE01RAB01E35 SLP207 $
  • 120213Z AUTO 11008KT 10SM -RA SCT030 BKN043 03/03 A3009 RMK AO2 DZE01RAB01 SLP207 $
  • 120158Z AUTO 11008KT 10SM -DZ SCT043 03/03 A3010 RMK AO2 DZB56 SLP210 P0000 T00300030 $
  • 120128Z AUTO 10007KT 10SM SCT060 03/03 A3011 RMK AO2 SLP214 $
  • 120058Z AUTO 12008KT 10SM OVC065 03/03 A3011 RMK AO2 SLP214 T00310031 $

TAF TAF KMUO
Valid from the 12 at 02:00 until the 13 at 08:00 UTC


120200Z 1202/1308 11009KT 9999 VCSH SCT050 OVC060 610604 QNH3010INS
TEMPO 1202/1207 9000 -SHRA BR
BECMG 1206/1207 12012G18KT 8000 -RA BKN030 OVC040 620604 QNH3007INS
BECMG 1217/1218 12009KT 9000 -SHRA BR SCT030 OVC050 610505 QNH3004INS TX07/1222Z TN03/1212Z



MET'MAP, your aeronautical weather chart ! - Copyright ORBIFLY December 2007 - Disclaimer

ORBIFLY MET'MAP TEAM :

Programming & Development : Alexandra Zaïnal
Concept & original design : Baudouin d'Aumeries
Assistance for programming : Marc-Olivier Méhu
Technical & hardware support : Manuel Goepfert

Contact : metmap@orbifly.com




SOURCES & CREDITS :

   NOAA       Earth
Advisory